Time;durP1;ratioP1;P1;durP2;ratioP2;P2;SDS_P1;SDS_P2;PMS_P1;PMS_P2;Temp;Humidity;BMP_temperature;BMP_pressure;BME280_temperature;BME280_humidity;BME280_pressure;Samples;Min_cycle;Max_cycle;Signal;HPM_P1;HPM_P2
2023/10/03 00:02:14;;;;;;;;;;;;;;;;;;5019931;28;19952;-58
2023/10/03 00:04:39;;;;;;;;;;;;;;;;;;5019238;28;20408;-59
2023/10/03 00:07:04;;;;;;;;;;;;;;;;;;5017365;28;20381;-58
2023/10/03 00:09:32;;;;;;;;;;;;;;;;;;5022705;28;19920;-58
2023/10/03 00:11:57;;;;;;;;;;;;;;;;;;5018620;28;21060;-58
2023/10/03 00:14:22;;;;;;;;;;;;;;;;;;5028327;28;20382;-59
2023/10/03 00:16:47;;;;;;;;;;;;;;;;;;5018808;28;20468;-59
2023/10/03 00:19:13;;;;;;;;;;;;;;;;;;5016297;28;19916;-59
2023/10/03 00:21:38;;;;;;;;;;;;;;;;;;5018199;28;19920;-59
2023/10/03 00:24:05;;;;;;;;;;;;;;;;;;5019625;28;19916;-59
2023/10/03 00:26:32;;;;;;;;;;;;;;;;;;4983641;28;19920;-57
2023/10/03 00:28:58;;;;;;;;;;;;;;;;;;4983113;28;19913;-58
2023/10/03 00:31:23;;;;;;;;;;;;;;;;;;4987542;28;19913;-59
2023/10/03 00:33:48;;;;;;;;;;;;;;;;;;4984659;28;19927;-58
2023/10/03 00:36:15;;;;;;;;;;;;;;;;;;4987400;28;20446;-57
2023/10/03 00:38:40;;;;;;;;;;;;;;;;;;4986088;28;20398;-58
2023/10/03 00:41:05;;;;;;;;;;;;;;;;;;4987002;28;20047;-60
2023/10/03 00:43:31;;;;;;;;;;;;;;;;;;4986466;28;22537;-58
2023/10/03 00:45:56;;;;;;;;;;;;;;;;;;4985570;28;20021;-60
2023/10/03 00:48:22;;;;;;;;;;;;;;;;;;4986458;28;19917;-59
2023/10/03 00:50:48;;;;;;;;;;;;;;;;;;4985376;28;20278;-60
2023/10/03 00:53:13;;;;;;;;;;;;;;;;;;4992618;28;19921;-60
2023/10/03 00:55:39;;;;;;;;;;;;;;;;;;4984542;28;19925;-59
2023/10/03 00:58:07;;;;;;;;;;;;;;;;;;5013909;28;20252;-57
2023/10/03 01:00:32;;;;;;;;;;;;;;;;;;5021316;28;20537;-58
2023/10/03 01:02:58;;;;;;;;;;;;;;;;;;5024248;28;19917;-59
2023/10/03 01:05:23;;;;;;;;;;;;;;;;;;5001884;28;19926;-60
2023/10/03 01:07:49;;;;;;;;;;;;;;;;;;5020772;28;19940;-59
2023/10/03 01:10:17;;;;;;;;;;;;;;;;;;5019942;28;20751;-59
2023/10/03 01:12:44;;;;;;;;;;;;;;;;;;5021227;28;20445;-56
2023/10/03 01:15:09;;;;;;;;;;;;;;;;;;5031021;28;19923;-58
2023/10/03 01:17:37;;;;;;;;;;;;;;;;;;5020949;28;19908;-59
2023/10/03 01:20:09;;;;;;;;;;;;;;;;;;5019390;28;19917;-59
2023/10/03 01:22:37;;;;;;;;;;;;;;;;;;5021164;28;19912;-58
2023/10/03 01:25:02;;;;;;;;;;;;;;;;;;5020110;28;19912;-58
2023/10/03 01:27:27;;;;;;;;;;;;;;;;;;4986414;28;19913;-59
2023/10/03 01:29:53;;;;;;;;;;;;;;;;;;5019402;28;19927;-56
2023/10/03 01:32:18;;;;;;;;;;;;;;;;;;5020166;28;19920;-58
2023/10/03 01:34:43;;;;;;;;;;;;;;;;;;5018292;28;19921;-58
2023/10/03 01:37:08;;;;;;;;;;;;;;;;;;5024076;28;19918;-59
2023/10/03 01:39:33;;;;;;;;;;;;;;;;;;5021020;28;20378;-58
2023/10/03 01:41:59;;;;;;;;;;;;;;;;;;5018982;28;19916;-57
2023/10/03 01:44:26;;;;;;;;;;;;;;;;;;5019623;28;20618;-60
2023/10/03 01:46:53;;;;;;;;;;;;;;;;;;4995155;28;19916;-59
2023/10/03 01:49:18;;;;;;;;;;;;;;;;;;5020035;28;20007;-56
2023/10/03 01:51:43;;;;;;;;;;;;;;;;;;5019797;28;19917;-56
2023/10/03 01:54:09;;;;;;;;;;;;;;;;;;5019832;28;19920;-59
2023/10/03 01:56:34;;;;;;;;;;;;;;;;;;5022838;28;19927;-58
2023/10/03 01:59:00;;;;;;;;;;;;;;;;;;5026392;28;19923;-60
2023/10/03 02:01:26;;;;;;;;;;;;;;;;;;5019696;28;20004;-59
2023/10/03 02:03:51;;;;;;;;;;;;;;;;;;5018668;28;19917;-58
2023/10/03 02:06:16;;;;;;;;;;;;;;;;;;5020043;28;19912;-59
2023/10/03 02:08:42;;;;;;;;;;;;;;;;;;5021645;28;20654;-56
2023/10/03 02:11:07;;;;;;;;;;;;;;;;;;5020233;28;20374;-59
2023/10/03 02:13:34;;;;;;;;;;;;;;;;;;5019342;28;19916;-56
2023/10/03 02:15:59;;;;;;;;;;;;;;;;;;5017750;28;20300;-57
2023/10/03 02:18:24;;;;;;;;;;;;;;;;;;5019948;28;20289;-59
2023/10/03 02:20:52;;;;;;;;;;;;;;;;;;5024723;28;19908;-59
2023/10/03 02:23:19;;;;;;;;;;;;;;;;;;5023555;28;19924;-59
2023/10/03 02:25:44;;;;;;;;;;;;;;;;;;5018710;28;19920;-57
2023/10/03 02:28:09;;;;;;;;;;;;;;;;;;5026755;28;20010;-59
2023/10/03 02:30:34;;;;;;;;;;;;;;;;;;5018458;28;19917;-59
2023/10/03 02:33:09;;;;;;;;;;;;;;;;;;4983775;28;20009;-59
2023/10/03 02:35:38;;;;;;;;;;;;;;;;;;5017574;28;19931;-57
2023/10/03 02:38:04;;;;;;;;;;;;;;;;;;5018726;28;20361;-59
2023/10/03 02:40:30;;;;;;;;;;;;;;;;;;5017919;28;19925;-58
2023/10/03 02:42:56;;;;;;;;;;;;;;;;;;5019835;28;19917;-58
2023/10/03 02:45:23;;;;;;;;;;;;;;;;;;5018033;28;20302;-58
2023/10/03 02:47:48;;;;;;;;;;;;;;;;;;5019111;28;20397;-58
2023/10/03 02:50:13;;;;;;;;;;;;;;;;;;5017626;28;20594;-59
2023/10/03 02:52:41;;;;;;;;;;;;;;;;;;5017917;28;20385;-59
2023/10/03 02:55:08;;;;;;;;;;;;;;;;;;5018643;28;19966;-59
2023/10/03 02:57:35;;;;;;;;;;;;;;;;;;5022269;28;19916;-59
2023/10/03 03:00:00;;;;;;;;;;;;;;;;;;5021383;28;20879;-59
2023/10/03 03:02:25;;;;;;;;;;;;;;;;;;5018555;28;20228;-58
2023/10/03 03:04:50;;;;;;;;;;;;;;;;;;5018932;28;19966;-59
2023/10/03 03:07:17;;;;;;;;;;;;;;;;;;4984140;28;20395;-58
2023/10/03 03:09:44;;;;;;;;;;;;;;;;;;5018591;28;19913;-59
2023/10/03 03:12:10;;;;;;;;;;;;;;;;;;5018827;28;20346;-59
2023/10/03 03:14:36;;;;;;;;;;;;;;;;;;5019628;28;20007;-59
2023/10/03 03:17:06;;;;;;;;;;;;;;;;;;5019515;28;19928;-59
2023/10/03 03:19:33;;;;;;;;;;;;;;;;;;5017609;28;19963;-59
2023/10/03 03:21:58;;;;;;;;;;;;;;;;;;5017473;28;20278;-57
2023/10/03 03:24:33;;;;;;;;;;;;;;;;;;5017790;28;21080;-59
2023/10/03 03:26:59;;;;;;;;;;;;;;;;;;5018584;28;19917;-58
2023/10/03 03:29:35;;;;;;;;;;;;;;;;;;5017831;28;20585;-59
2023/10/03 03:32:00;;;;;;;;;;;;;;;;;;5024311;28;19913;-59
2023/10/03 03:34:25;;;;;;;;;;;;;;;;;;5017160;28;20491;-58
2023/10/03 03:36:54;;;;;;;;;;;;;;;;;;5018987;28;21746;-59
2023/10/03 03:39:20;;;;;;;;;;;;;;;;;;5017857;28;19935;-59
2023/10/03 03:41:46;;;;;;;;;;;;;;;;;;5018918;28;19916;-59
2023/10/03 03:44:14;;;;;;;;;;;;;;;;;;5015176;28;20000;-57
2023/10/03 03:46:40;;;;;;;;;;;;;;;;;;5018147;28;20248;-59
2023/10/03 03:49:06;;;;;;;;;;;;;;;;;;5016751;28;20524;-59
2023/10/03 03:51:31;;;;;;;;;;;;;;;;;;5018045;28;19950;-58
2023/10/03 03:53:56;;;;;;;;;;;;;;;;;;5018321;28;19921;-58
2023/10/03 03:56:21;;;;;;;;;;;;;;;;;;5021074;28;19992;-59
2023/10/03 03:58:48;;;;;;;;;;;;;;;;;;5023736;28;20338;-59
2023/10/03 04:01:20;;;;;;;;;;;;;;;;;;5018592;28;20357;-59
2023/10/03 04:03:45;;;;;;;;;;;;;;;;;;5018161;28;19916;-59
2023/10/03 04:06:10;;;;;;;;;;;;;;;;;;5021759;28;20400;-58
2023/10/03 04:08:36;;;;;;;;;;;;;;;;;;5021813;28;19952;-59
2023/10/03 04:11:02;;;;;;;;;;;;;;;;;;5020739;28;19921;-59
2023/10/03 04:13:29;;;;;;;;;;;;;;;;;;5032696;28;20487;-58
2023/10/03 04:15:57;;;;;;;;;;;;;;;;;;4984844;28;19921;-57
2023/10/03 04:18:22;;;;;;;;;;;;;;;;;;4988120;28;20375;-59
2023/10/03 04:20:48;;;;;;;;;;;;;;;;;;4991417;28;20329;-56
2023/10/03 04:23:14;;;;;;;;;;;;;;;;;;4986985;28;21649;-58
2023/10/03 04:25:39;;;;;;;;;;;;;;;;;;4986272;28;20039;-58
2023/10/03 04:28:05;;;;;;;;;;;;;;;;;;4989840;28;20129;-59
2023/10/03 04:30:30;;;;;;;;;;;;;;;;;;4971274;28;19920;-58
2023/10/03 04:32:57;;;;;;;;;;;;;;;;;;4987565;28;19927;-57
2023/10/03 04:35:22;;;;;;;;;;;;;;;;;;4985250;28;19960;-59
2023/10/03 04:37:56;;;;;;;;;;;;;;;;;;4985162;28;20008;-58
2023/10/03 04:40:35;;;;;;;;;;;;;;;;;;4985722;28;20378;-59
2023/10/03 04:43:01;;;;;;;;;;;;;;;;;;4988362;28;20434;-59
2023/10/03 04:45:26;;;;;;;;;;;;;;;;;;4984508;28;19917;-58
2023/10/03 04:47:51;;;;;;;;;;;;;;;;;;5016409;28;19919;-59
2023/10/03 04:50:19;;;;;;;;;;;;;;;;;;5020535;28;19966;-58
2023/10/03 04:52:48;;;;;;;;;;;;;;;;;;5021447;28;20056;-59
2023/10/03 04:55:14;;;;;;;;;;;;;;;;;;5002692;28;21657;-57
2023/10/03 04:57:41;;;;;;;;;;;;;;;;;;5024249;28;19924;-57
2023/10/03 05:00:06;;;;;;;;;;;;;;;;;;5023426;28;19916;-58
2023/10/03 05:02:31;;;;;;;;;;;;;;;;;;5021963;28;19921;-59
2023/10/03 05:04:56;;;;;;;;;;;;;;;;;;5019892;28;19931;-59
2023/10/03 05:07:23;;;;;;;;;;;;;;;;;;4988339;28;19917;-59
2023/10/03 05:09:49;;;;;;;;;;;;;;;;;;5019292;28;20605;-59
2023/10/03 05:12:14;;;;;;;;;;;;;;;;;;5031099;28;19948;-58
2023/10/03 05:14:45;;;;;;;;;;;;;;;;;;5021909;28;19922;-60
2023/10/03 05:17:10;;;;;;;;;;;;;;;;;;5020585;28;19924;-59
2023/10/03 05:19:36;;;;;;;;;;;;;;;;;;5019462;28;19917;-58
2023/10/03 05:22:02;;;;;;;;;;;;;;;;;;5021192;28;19996;-58
2023/10/03 05:24:28;;;;;;;;;;;;;;;;;;5001244;28;19909;-57
2023/10/03 05:26:53;;;;;;;;;;;;;;;;;;5021042;28;19951;-58
2023/10/03 05:29:18;;;;;;;;;;;;;;;;;;5020098;28;20392;-59
2023/10/03 05:31:43;;;;;;;;;;;;;;;;;;5020477;28;20375;-59
2023/10/03 05:34:09;;;;;;;;;;;;;;;;;;5000221;28;19921;-56
2023/10/03 05:36:34;;;;;;;;;;;;;;;;;;5021039;28;19913;-57
2023/10/03 05:39:00;;;;;;;;;;;;;;;;;;5023231;28;19925;-57
2023/10/03 05:41:25;;;;;;;;;;;;;;;;;;5022943;28;19916;-59
2023/10/03 05:43:51;;;;;;;;;;;;;;;;;;5020356;28;19912;-58
2023/10/03 05:46:17;;;;;;;;;;;;;;;;;;5021169;28;21457;-58
2023/10/03 05:48:43;;;;;;;;;;;;;;;;;;5018250;28;20459;-58
2023/10/03 05:51:08;;;;;;;;;;;;;;;;;;5020787;28;19917;-58
2023/10/03 05:53:34;;;;;;;;;;;;;;;;;;5019823;28;20380;-59
2023/10/03 05:55:59;;;;;;;;;;;;;;;;;;5018658;28;19917;-60
2023/10/03 05:58:24;;;;;;;;;;;;;;;;;;5024870;28;20412;-59
2023/10/03 06:00:49;;;;;;;;;;;;;;;;;;5019040;28;19916;-56
2023/10/03 06:03:14;;;;;;;;;;;;;;;;;;5020018;28;20665;-59
2023/10/03 06:05:40;;;;;;;;;;;;;;;;;;4989297;28;19923;-59
2023/10/03 06:11:49;;;;;;;;;;;;;;;;;;5048852;27;19931;-62
2023/10/03 06:14:15;;;;;;;;;;;;;;;;;;5040506;28;19928;-60
2023/10/03 06:16:40;;;;;;;;;;;;;;;;;;5047965;28;19916;-61
2023/10/03 06:19:07;;;;;;;;;;;;;;;;;;5048053;28;19975;-60
2023/10/03 06:21:33;;;;;;;;;;;;;;;;;;5039668;28;19924;-61
2023/10/03 06:23:58;;;;;;;;;;;;;;;;;;5040614;28;19981;-59
2023/10/03 06:26:24;;;;;;;;;;;;;;;;;;5041977;28;19920;-59
2023/10/03 06:28:50;;;;;;;;;;;;;;;;;;5040343;28;19999;-59
2023/10/03 06:31:15;;;;;;;;;;;;;;;;;;5045225;28;20160;-58
2023/10/03 06:33:42;;;;;;;;;;;;;;;;;;5050548;28;19993;-59
2023/10/03 06:36:07;;;;;;;;;;;;;;;;;;5049764;28;19955;-58
2023/10/03 06:38:33;;;;;;;;;;;;;;;;;;5050570;28;19920;-59
2023/10/03 06:40:58;;;;;;;;;;;;;;;;;;5051759;28;19928;-58
2023/10/03 06:43:23;;;;;;;;;;;;;;;;;;5053343;28;20393;-58
2023/10/03 06:45:48;;;;;;;;;;;;;;;;;;5049746;28;19993;-59
2023/10/03 06:48:13;;;;;;;;;;;;;;;;;;5051466;28;19959;-60
2023/10/03 06:50:38;;;;;;;;;;;;;;;;;;5051894;28;19920;-60
2023/10/03 06:55:22;;;;;;;;;;;;;;;;;;5053523;27;19932;-60
2023/10/03 06:57:48;;;;;;;;;;;;;;;;;;5054281;28;20282;-59
2023/10/03 07:00:14;;;;;;;;;;;;;;;;;;5047981;28;19974;-57
2023/10/03 07:02:39;;;;;;;;;;;;;;;;;;5050232;28;19955;-60
2023/10/03 07:05:05;;;;;;;;;;;;;;;;;;5062563;28;20014;-60
2023/10/03 07:07:30;;;;;;;;;;;;;;;;;;5047278;28;21739;-59
2023/10/03 07:09:55;;;;;;;;;;;;;;;;;;5047066;28;19924;-61
2023/10/03 07:12:22;;;;;;;;;;;;;;;;;;5062886;28;19912;-60
2023/10/03 07:14:48;;;;;;;;;;;;;;;;;;5049759;28;20051;-59
2023/10/03 07:17:14;;;;;;;;;;;;;;;;;;5047498;28;21689;-58
2023/10/03 07:19:40;;;;;;;;;;;;;;;;;;5045701;28;20010;-56
2023/10/03 07:22:06;;;;;;;;;;;;;;;;;;5047412;28;20003;-58
2023/10/03 07:24:31;;;;;;;;;;;;;;;;;;5052136;28;20116;-59
2023/10/03 07:26:56;;;;;;;;;;;;;;;;;;5050134;28;19927;-55
2023/10/03 07:29:21;;;;;;;;;;;;;;;;;;5049295;28;19916;-58
2023/10/03 07:31:47;;;;;;;;;;;;;;;;;;5058109;28;20536;-59
2023/10/03 07:34:17;;;;;;;;;;;;;;;;;;5054183;28;20162;-57
2023/10/03 07:36:42;;;;;;;;;;;;;;;;;;5048882;28;20127;-56
2023/10/03 07:39:08;;;;;;;;;;;;;;;;;;5050206;28;20196;-57
2023/10/03 07:41:33;;;;;;;;;;;;;;;;;;5043869;28;19920;-54
2023/10/03 07:43:58;;;;;;;;;;;;;;;;;;5045255;28;20435;-59
2023/10/03 07:46:25;;;;;;;;;;;;;;;;;;5047441;28;19959;-59
2023/10/03 07:48:52;;;;;;;;;;;;;;;;;;5042973;28;19928;-56
2023/10/03 07:51:17;;;;;;;;;;;;;;;;;;5045521;28;19927;-57
2023/10/03 07:53:42;;;;;;;;;;;;;;;;;;5043800;28;20395;-57
2023/10/03 07:56:08;;;;;;;;;;;;;;;;;;5051275;28;19920;-60
2023/10/03 07:58:33;;;;;;;;;;;;;;;;;;5049057;28;20059;-58
2023/10/03 08:00:58;;;;;;;;;;;;;;;;;;5043365;28;19939;-59
2023/10/03 08:03:28;;;;;;;;;;;;;;;;;;5050651;28;20265;-58
2023/10/03 08:05:57;;;;;;;;;;;;;;;;;;5037581;28;19917;-57
2023/10/03 08:08:22;;;;;;;;;;;;;;;;;;5031092;28;20391;-56
2023/10/03 08:10:48;;;;;;;;;;;;;;;;;;5035659;28;19920;-59
2023/10/03 08:13:17;;;;;;;;;;;;;;;;;;5033617;28;20042;-58
2023/10/03 08:15:42;;;;;;;;;;;;;;;;;;5031148;28;19964;-56
2023/10/03 08:18:17;;;;;;;;;;;;;;;;;;5032069;28;20548;-55
2023/10/03 08:20:42;;;;;;;;;;;;;;;;;;5031771;28;20265;-59
2023/10/03 08:23:09;;;;;;;;;;;;;;;;;;5034384;28;20426;-60
2023/10/03 08:25:35;;;;;;;;;;;;;;;;;;5033026;28;19928;-57
2023/10/03 08:28:00;;;;;;;;;;;;;;;;;;5035145;28;19958;-59
2023/10/03 08:30:28;;;;;;;;;;;;;;;;;;5034693;28;19971;-57
2023/10/03 08:32:54;;;;;;;;;;;;;;;;;;5033653;28;19975;-58
2023/10/03 08:35:19;;;;;;;;;;;;;;;;;;5032176;28;19946;-60
2023/10/03 08:37:44;;;;;;;;;;;;;;;;;;5031753;28;19966;-62
2023/10/03 08:40:19;;;;;;;;;;;;;;;;;;5032004;28;20382;-61
2023/10/03 08:42:52;;;;;;;;;;;;;;;;;;5035946;28;19974;-63
2023/10/03 08:45:22;;;;;;;;;;;;;;;;;;5032595;28;20014;-64
2023/10/03 08:47:48;;;;;;;;;;;;;;;;;;5034036;28;19932;-64
2023/10/03 08:50:29;;;;;;;;;;;;;;;;;;5032771;28;22165;-61
2023/10/03 08:52:56;;;;;;;;;;;;;;;;;;5028980;28;19921;-60
2023/10/03 08:55:22;;;;;;;;;;;;;;;;;;5026149;28;19974;-60
2023/10/03 08:57:48;;;;;;;;;;;;;;;;;;5031978;28;19927;-58
2023/10/03 09:00:13;;;;;;;;;;;;;;;;;;5034558;28;21998;-60
2023/10/03 09:02:47;;;;;;;;;;;;;;;;;;5029565;28;20423;-56
2023/10/03 09:05:15;;;;;;;;;;;;;;;;;;5027332;28;20058;-60
2023/10/03 09:07:41;;;;;;;;;;;;;;;;;;5031318;28;19928;-57
2023/10/03 09:10:08;;;;;;;;;;;;;;;;;;5030234;28;22433;-59
2023/10/03 09:12:34;;;;;;;;;;;;;;;;;;5032452;28;19921;-62
2023/10/03 09:14:59;;;;;;;;;;;;;;;;;;5029804;28;20422;-58
2023/10/03 09:17:24;;;;;;;;;;;;;;;;;;5022497;28;19928;-54
2023/10/03 09:19:50;;;;;;;;;;;;;;;;;;5030003;28;19921;-60
2023/10/03 09:22:15;;;;;;;;;;;;;;;;;;5029613;28;20911;-57
2023/10/03 09:24:43;;;;;;;;;;;;;;;;;;5027749;28;19963;-61
2023/10/03 09:27:08;;;;;;;;;;;;;;;;;;5029767;28;19986;-60
2023/10/03 09:29:33;;;;;;;;;;;;;;;;;;5028086;28;19925;-63
2023/10/03 09:31:58;;;;;;;;;;;;;;;;;;5021059;28;20002;-57
2023/10/03 09:34:30;;;;;;;;;;;;;;;;;;5019557;28;20295;-57
2023/10/03 09:36:55;;;;;;;;;;;;;;;;;;5025601;28;19928;-58
2023/10/03 09:39:23;;;;;;;;;;;;;;;;;;5024121;28;20001;-56
2023/10/03 09:41:49;;;;;;;;;;;;;;;;;;5020175;28;19995;-59
2023/10/03 09:44:14;;;;;;;;;;;;;;;;;;5028428;28;19927;-58
2023/10/03 09:46:40;;;;;;;;;;;;;;;;;;5020976;28;19920;-56
2023/10/03 09:49:08;;;;;;;;;;;;;;;;;;5030057;28;20026;-62
2023/10/03 09:51:36;;;;;;;;;;;;;;;;;;5026349;28;19985;-62
2023/10/03 09:54:02;;;;;;;;;;;;;;;;;;5032411;28;19932;-61
2023/10/03 09:56:35;;;;;;;;;;;;;;;;;;5030751;28;20011;-61
2023/10/03 09:59:00;;;;;;;;;;;;;;;;;;5036584;28;19974;-58
2023/10/03 10:01:30;;;;;;;;;;;;;;;;;;5032050;28;19920;-62
2023/10/03 10:03:59;;;;;;;;;;;;;;;;;;5034199;28;20359;-61
2023/10/03 10:06:28;;;;;;;;;;;;;;;;;;5031726;28;19967;-62
2023/10/03 10:08:58;;;;;;;;;;;;;;;;;;5030046;28;20071;-61
2023/10/03 10:11:23;;;;;;;;;;;;;;;;;;5031656;28;19972;-60
2023/10/03 10:13:50;;;;;;;;;;;;;;;;;;5033902;28;19929;-57
2023/10/03 10:16:20;;;;;;;;;;;;;;;;;;5037943;28;19951;-62
2023/10/03 10:18:45;;;;;;;;;;;;;;;;;;5029701;28;20350;-61
2023/10/03 10:21:10;;;;;;;;;;;;;;;;;;5032472;28;19921;-62
2023/10/03 10:23:36;;;;;;;;;;;;;;;;;;5030422;28;20313;-62
2023/10/03 10:26:06;;;;;;;;;;;;;;;;;;5028333;28;19966;-62
2023/10/03 10:28:31;;;;;;;;;;;;;;;;;;5028625;28;19979;-64
2023/10/03 10:30:56;;;;;;;;;;;;;;;;;;5032036;28;19921;-59
2023/10/03 10:33:21;;;;;;;;;;;;;;;;;;5030378;28;19928;-63
2023/10/03 10:35:49;;;;;;;;;;;;;;;;;;5027965;28;19920;-61
2023/10/03 10:38:15;;;;;;;;;;;;;;;;;;5029874;28;20055;-62
2023/10/03 10:40:41;;;;;;;;;;;;;;;;;;5020945;28;19920;-62
2023/10/03 10:43:07;;;;;;;;;;;;;;;;;;5022716;28;20651;-63
2023/10/03 10:45:38;;;;;;;;;;;;;;;;;;5027320;28;20540;-63
2023/10/03 10:48:04;;;;;;;;;;;;;;;;;;5028999;28;19916;-65
2023/10/03 10:50:29;;;;;;;;;;;;;;;;;;5032278;28;20372;-64
2023/10/03 10:52:55;;;;;;;;;;;;;;;;;;5031868;28;20010;-57
2023/10/03 10:55:21;;;;;;;;;;;;;;;;;;5031259;28;20208;-60
2023/10/03 10:57:46;;;;;;;;;;;;;;;;;;5031674;28;20701;-60
2023/10/03 11:00:12;;;;;;;;;;;;;;;;;;5032631;28;19917;-60
2023/10/03 11:02:37;;;;;;;;;;;;;;;;;;5029033;28;20091;-61
2023/10/03 11:05:02;;;;;;;;;;;;;;;;;;5027332;28;20399;-62
2023/10/03 11:07:27;;;;;;;;;;;;;;;;;;5030134;28;19921;-59
2023/10/03 11:09:54;;;;;;;;;;;;;;;;;;5026948;28;20272;-60
2023/10/03 11:12:19;;;;;;;;;;;;;;;;;;5033028;28;19916;-59
2023/10/03 11:14:45;;;;;;;;;;;;;;;;;;5030958;28;20438;-58
2023/10/03 11:17:10;;;;;;;;;;;;;;;;;;5032477;28;19924;-58
2023/10/03 11:19:35;;;;;;;;;;;;;;;;;;5030560;28;19913;-58
2023/10/03 11:22:00;;;;;;;;;;;;;;;;;;5032299;28;20007;-61
2023/10/03 11:24:26;;;;;;;;;;;;;;;;;;5031592;28;20318;-60
2023/10/03 11:26:51;;;;;;;;;;;;;;;;;;5032269;28;20506;-60
2023/10/03 11:29:17;;;;;;;;;;;;;;;;;;5032513;28;19913;-61
2023/10/03 11:31:43;;;;;;;;;;;;;;;;;;5034111;28;19924;-61
2023/10/03 11:34:08;;;;;;;;;;;;;;;;;;5029100;28;19952;-60
2023/10/03 11:36:33;;;;;;;;;;;;;;;;;;5031906;28;20020;-62
2023/10/03 11:38:58;;;;;;;;;;;;;;;;;;5032383;28;20383;-61
2023/10/03 11:41:23;;;;;;;;;;;;;;;;;;5044738;28;19916;-60
2023/10/03 11:43:49;;;;;;;;;;;;;;;;;;5041739;28;20339;-59
2023/10/03 11:46:15;;;;;;;;;;;;;;;;;;5031311;28;19930;-59
2023/10/03 11:48:40;;;;;;;;;;;;;;;;;;5026732;28;20021;-59
2023/10/03 11:51:06;;;;;;;;;;;;;;;;;;5028801;28;19917;-59
2023/10/03 11:53:31;;;;;;;;;;;;;;;;;;5034184;28;19971;-60
2023/10/03 11:55:56;;;;;;;;;;;;;;;;;;5033853;28;20035;-60
2023/10/03 11:58:22;;;;;;;;;;;;;;;;;;5051604;28;19929;-59
2023/10/03 12:00:49;;;;;;;;;;;;;;;;;;5034074;28;22212;-59
2023/10/03 12:03:14;;;;;;;;;;;;;;;;;;5036216;28;19931;-60
2023/10/03 12:05:42;;;;;;;;;;;;;;;;;;5031878;28;19916;-60
2023/10/03 12:08:07;;;;;;;;;;;;;;;;;;5031954;28;19921;-60
2023/10/03 12:10:34;;;;;;;;;;;;;;;;;;5028373;28;20118;-60
2023/10/03 12:12:59;;;;;;;;;;;;;;;;;;5028173;28;19930;-60
2023/10/03 12:15:24;;;;;;;;;;;;;;;;;;5031271;28;19929;-54
2023/10/03 12:17:49;;;;;;;;;;;;;;;;;;5030889;28;19943;-59
2023/10/03 12:20:15;;;;;;;;;;;;;;;;;;5036398;28;19921;-62
2023/10/03 12:22:41;;;;;;;;;;;;;;;;;;5029378;28;19967;-59
2023/10/03 12:25:06;;;;;;;;;;;;;;;;;;5025294;28;19927;-59
2023/10/03 12:27:31;;;;;;;;;;;;;;;;;;5028539;28;19921;-60
2023/10/03 12:29:56;;;;;;;;;;;;;;;;;;5034292;28;19917;-56
2023/10/03 12:32:22;;;;;;;;;;;;;;;;;;5033990;28;19920;-59
2023/10/03 12:34:47;;;;;;;;;;;;;;;;;;5033659;28;19995;-57
2023/10/03 12:37:12;;;;;;;;;;;;;;;;;;5034166;28;20433;-56
2023/10/03 12:39:37;;;;;;;;;;;;;;;;;;5033252;28;19919;-60
2023/10/03 12:42:04;;;;;;;;;;;;;;;;;;5033359;28;19952;-55
2023/10/03 12:44:30;;;;;;;;;;;;;;;;;;5037152;28;20415;-52
2023/10/03 12:46:58;;;;;;;;;;;;;;;;;;5036706;28;19912;-56
2023/10/03 12:49:23;;;;;;;;;;;;;;;;;;5032240;28;19950;-57
2023/10/03 12:51:48;;;;;;;;;;;;;;;;;;5032839;28;20483;-59
2023/10/03 12:54:14;;;;;;;;;;;;;;;;;;5031272;28;19944;-56
2023/10/03 12:56:39;;;;;;;;;;;;;;;;;;5033314;28;19952;-60
2023/10/03 12:59:04;;;;;;;;;;;;;;;;;;5036388;28;19961;-60
2023/10/03 13:01:29;;;;;;;;;;;;;;;;;;5031587;28;20580;-60
2023/10/03 13:03:55;;;;;;;;;;;;;;;;;;5034156;28;19916;-59
2023/10/03 13:06:20;;;;;;;;;;;;;;;;;;5033234;28;19924;-59
2023/10/03 13:08:46;;;;;;;;;;;;;;;;;;5034328;28;20422;-60
2023/10/03 13:11:13;;;;;;;;;;;;;;;;;;5038982;28;20922;-61
2023/10/03 13:13:40;;;;;;;;;;;;;;;;;;5032811;28;20363;-62
2023/10/03 13:16:05;;;;;;;;;;;;;;;;;;5034087;28;19962;-61
2023/10/03 13:18:30;;;;;;;;;;;;;;;;;;5034418;28;20486;-65
2023/10/03 13:20:55;;;;;;;;;;;;;;;;;;5034724;28;20261;-62
2023/10/03 13:23:20;;;;;;;;;;;;;;;;;;5037767;28;19939;-62
2023/10/03 13:25:45;;;;;;;;;;;;;;;;;;5032025;28;20326;-62
2023/10/03 13:28:11;;;;;;;;;;;;;;;;;;5038521;28;19924;-64
2023/10/03 13:30:36;;;;;;;;;;;;;;;;;;5032413;28;22192;-62
2023/10/03 13:33:02;;;;;;;;;;;;;;;;;;5035288;28;20380;-64
2023/10/03 13:35:27;;;;;;;;;;;;;;;;;;5032361;28;19939;-61
2023/10/03 13:37:54;;;;;;;;;;;;;;;;;;5032131;28;20003;-65
2023/10/03 13:40:19;;;;;;;;;;;;;;;;;;5032046;28;19928;-64
2023/10/03 13:42:44;;;;;;;;;;;;;;;;;;5033338;28;19921;-61
2023/10/03 13:45:12;;;;;;;;;;;;;;;;;;5032793;28;20052;-62
2023/10/03 13:47:37;;;;;;;;;;;;;;;;;;5028482;28;19921;-64
2023/10/03 13:50:03;;;;;;;;;;;;;;;;;;5033684;28;19947;-64
2023/10/03 13:52:28;;;;;;;;;;;;;;;;;;5034606;28;19920;-64
2023/10/03 13:54:55;;;;;;;;;;;;;;;;;;5031411;28;19932;-63
2023/10/03 13:57:22;;;;;;;;;;;;;;;;;;5024863;28;22738;-64
2023/10/03 13:59:48;;;;;;;;;;;;;;;;;;5030323;28;19931;-67
2023/10/03 14:02:13;;;;;;;;;;;;;;;;;;5034317;28;19999;-64
2023/10/03 14:04:38;;;;;;;;;;;;;;;;;;5033091;28;19920;-62
2023/10/03 14:07:04;;;;;;;;;;;;;;;;;;5034029;28;20367;-64
2023/10/03 14:09:29;;;;;;;;;;;;;;;;;;5024143;28;19959;-63
2023/10/03 14:11:56;;;;;;;;;;;;;;;;;;5025858;28;19929;-62
2023/10/03 14:14:21;;;;;;;;;;;;;;;;;;5031654;28;19924;-68
2023/10/03 14:16:47;;;;;;;;;;;;;;;;;;5042576;28;20552;-62
2023/10/03 14:19:12;;;;;;;;;;;;;;;;;;5034220;28;19920;-62
2023/10/03 14:21:37;;;;;;;;;;;;;;;;;;5036455;28;19913;-60
2023/10/03 14:24:02;;;;;;;;;;;;;;;;;;5033160;28;19967;-62
2023/10/03 14:26:27;;;;;;;;;;;;;;;;;;5034647;28;19916;-66
2023/10/03 14:28:54;;;;;;;;;;;;;;;;;;5027515;28;19921;-60
2023/10/03 14:31:19;;;;;;;;;;;;;;;;;;5022302;28;19997;-57
2023/10/03 14:33:45;;;;;;;;;;;;;;;;;;5024069;28;19987;-60
2023/10/03 14:36:12;;;;;;;;;;;;;;;;;;5019172;28;19927;-60
2023/10/03 14:38:37;;;;;;;;;;;;;;;;;;5017860;28;19928;-62
2023/10/03 14:41:03;;;;;;;;;;;;;;;;;;5017795;28;19960;-61
2023/10/03 14:43:31;;;;;;;;;;;;;;;;;;5019346;28;19920;-62
2023/10/03 14:45:56;;;;;;;;;;;;;;;;;;5019635;28;20609;-62
2023/10/03 14:48:24;;;;;;;;;;;;;;;;;;5026881;28;20288;-64
2023/10/03 14:50:50;;;;;;;;;;;;;;;;;;5030435;28;19932;-65
2023/10/03 14:53:15;;;;;;;;;;;;;;;;;;5031453;28;20343;-64
2023/10/03 14:55:40;;;;;;;;;;;;;;;;;;5028090;28;20582;-63
2023/10/03 14:58:06;;;;;;;;;;;;;;;;;;5038939;28;19919;-63
2023/10/03 15:00:31;;;;;;;;;;;;;;;;;;5028598;28;19970;-63
2023/10/03 15:02:56;;;;;;;;;;;;;;;;;;5030416;28;20751;-62
2023/10/03 15:05:23;;;;;;;;;;;;;;;;;;5030801;28;20334;-64
2023/10/03 15:07:48;;;;;;;;;;;;;;;;;;5030569;28;19923;-63
2023/10/03 15:10:13;;;;;;;;;;;;;;;;;;5029465;28;19920;-62
2023/10/03 15:12:38;;;;;;;;;;;;;;;;;;5030836;28;20055;-63
2023/10/03 15:15:04;;;;;;;;;;;;;;;;;;5029027;28;20555;-64
2023/10/03 15:17:30;;;;;;;;;;;;;;;;;;5049847;28;20490;-64
2023/10/03 15:19:56;;;;;;;;;;;;;;;;;;5032700;28;19924;-64
2023/10/03 15:22:21;;;;;;;;;;;;;;;;;;5033984;28;19992;-63
2023/10/03 15:24:46;;;;;;;;;;;;;;;;;;5033333;28;19951;-64
2023/10/03 15:27:13;;;;;;;;;;;;;;;;;;5034289;28;19917;-63
2023/10/03 15:29:38;;;;;;;;;;;;;;;;;;5032744;28;19920;-63
2023/10/03 15:32:04;;;;;;;;;;;;;;;;;;5040171;28;20555;-63
2023/10/03 15:34:29;;;;;;;;;;;;;;;;;;5031336;28;19924;-62
2023/10/03 15:36:54;;;;;;;;;;;;;;;;;;5031479;28;20049;-63
2023/10/03 15:39:19;;;;;;;;;;;;;;;;;;5033708;28;19920;-64
2023/10/03 15:41:47;;;;;;;;;;;;;;;;;;5037468;28;19963;-65
2023/10/03 15:44:12;;;;;;;;;;;;;;;;;;5036517;28;19921;-63
2023/10/03 15:46:37;;;;;;;;;;;;;;;;;;5035508;28;20292;-63
2023/10/03 15:49:03;;;;;;;;;;;;;;;;;;5032640;28;20446;-64
2023/10/03 15:51:28;;;;;;;;;;;;;;;;;;5033139;28;19924;-64
2023/10/03 15:53:53;;;;;;;;;;;;;;;;;;5034376;28;19996;-64
2023/10/03 15:56:19;;;;;;;;;;;;;;;;;;5033901;28;20399;-64
2023/10/03 15:58:44;;;;;;;;;;;;;;;;;;5040400;28;19959;-64
2023/10/03 16:01:10;;;;;;;;;;;;;;;;;;5034686;28;20066;-64
2023/10/03 16:03:35;;;;;;;;;;;;;;;;;;5042927;28;19912;-64
2023/10/03 16:06:01;;;;;;;;;;;;;;;;;;5033225;28;20304;-64
2023/10/03 16:08:29;;;;;;;;;;;;;;;;;;5033274;28;20336;-64
2023/10/03 16:10:54;;;;;;;;;;;;;;;;;;5032942;28;19931;-64
2023/10/03 16:13:20;;;;;;;;;;;;;;;;;;5033234;28;19921;-63
2023/10/03 16:15:45;;;;;;;;;;;;;;;;;;5034431;28;19928;-64
2023/10/03 16:18:11;;;;;;;;;;;;;;;;;;5039076;28;19916;-64
2023/10/03 16:20:37;;;;;;;;;;;;;;;;;;5034604;28;19963;-64
2023/10/03 16:23:07;;;;;;;;;;;;;;;;;;5036103;28;19916;-62
2023/10/03 16:25:32;;;;;;;;;;;;;;;;;;5041694;28;19920;-64
2023/10/03 16:27:59;;;;;;;;;;;;;;;;;;5037146;28;19970;-64
2023/10/03 16:30:25;;;;;;;;;;;;;;;;;;5047413;28;19924;-63
2023/10/03 16:32:50;;;;;;;;;;;;;;;;;;5032068;28;22527;-63
2023/10/03 16:35:15;;;;;;;;;;;;;;;;;;5032436;28;20058;-64
2023/10/03 16:37:41;;;;;;;;;;;;;;;;;;5040149;28;19917;-63
2023/10/03 16:40:06;;;;;;;;;;;;;;;;;;5033741;28;19917;-64
2023/10/03 16:42:31;;;;;;;;;;;;;;;;;;5033860;28;20042;-63
2023/10/03 16:44:57;;;;;;;;;;;;;;;;;;5029189;28;19936;-63